createdAt,value
2022-07-26T00:01:52.117Z,54.60
2022-07-26T00:04:19.579Z,53.75
2022-07-26T00:06:46.928Z,52.66
2022-07-26T00:09:14.564Z,52.65
2022-07-26T00:11:42.205Z,54.44
2022-07-26T00:14:09.643Z,55.50
2022-07-26T00:16:40.537Z,55.92
2022-07-26T00:19:08.325Z,56.72
2022-07-26T00:21:37.238Z,56.46
2022-07-26T00:24:08.563Z,56.50
2022-07-26T00:26:36.255Z,56.59
2022-07-26T00:29:06.777Z,56.67
2022-07-26T00:31:34.433Z,56.50
2022-07-26T00:34:01.833Z,57.23
2022-07-26T00:36:29.789Z,58.87
2022-07-26T00:38:57.163Z,59.61
2022-07-26T00:41:24.489Z,59.62
2022-07-26T00:43:59.857Z,60.39
2022-07-26T00:46:27.835Z,60.74
2022-07-26T00:48:55.384Z,60.76
2022-07-26T00:51:23.442Z,60.50
2022-07-26T00:53:53.296Z,60.67
2022-07-26T00:56:21.822Z,59.71
2022-07-26T00:58:49.182Z,59.53
2022-07-26T01:01:16.755Z,59.65
2022-07-26T01:03:44.487Z,59.37
2022-07-26T01:06:12.071Z,59.04
2022-07-26T01:08:39.434Z,58.72
2022-07-26T01:11:07.613Z,58.18
2022-07-26T01:13:35.662Z,58.44
2022-07-26T01:16:03.811Z,57.16
2022-07-26T01:18:31.188Z,57.04
2022-07-26T01:21:00.588Z,56.25
2022-07-26T01:23:28.250Z,55.89
2022-07-26T01:25:56.653Z,55.01
2022-07-26T01:28:24.007Z,55.83
2022-07-26T01:30:51.654Z,56.64
2022-07-26T01:33:19.100Z,57.64
2022-07-26T01:35:46.500Z,59.21
2022-07-26T01:38:13.993Z,60.00
2022-07-26T01:40:41.263Z,60.07
2022-07-26T01:43:08.595Z,60.14
2022-07-26T01:45:35.958Z,58.40
2022-07-26T01:48:03.468Z,58.72
2022-07-26T01:50:30.801Z,58.96
2022-07-26T01:52:58.164Z,59.00
2022-07-26T01:55:27.288Z,60.01
2022-07-26T01:57:55.011Z,60.69
2022-07-26T02:00:22.315Z,60.37
2022-07-26T02:02:49.765Z,60.38
2022-07-26T02:05:17.201Z,60.02
2022-07-26T02:07:44.832Z,60.67
2022-07-26T02:10:14.529Z,62.33
2022-07-26T02:12:42.415Z,62.83
2022-07-26T02:15:11.304Z,63.41
2022-07-26T02:17:38.672Z,63.71
2022-07-26T02:20:07.282Z,64.27
2022-07-26T02:22:35.716Z,64.61
2022-07-26T02:25:05.501Z,64.76
2022-07-26T02:27:33.282Z,65.48
2022-07-26T02:30:00.675Z,65.31
2022-07-26T02:32:28.094Z,65.36
2022-07-26T02:34:55.479Z,66.42
2022-07-26T02:37:22.783Z,65.90
2022-07-26T02:39:50.098Z,65.61
2022-07-26T02:42:17.390Z,63.34
2022-07-26T02:44:44.792Z,62.49
2022-07-26T02:47:12.691Z,61.68
2022-07-26T02:49:40.125Z,62.39
2022-07-26T02:52:07.472Z,63.30
2022-07-26T02:54:34.810Z,62.49
2022-07-26T02:57:02.249Z,61.71
2022-07-26T02:59:29.719Z,61.65
2022-07-26T03:01:57.119Z,61.03
2022-07-26T03:04:24.597Z,61.84
2022-07-26T03:06:51.941Z,61.82
2022-07-26T03:09:19.223Z,62.29
2022-07-26T03:11:46.726Z,61.22
2022-07-26T03:14:14.058Z,60.51
2022-07-26T03:16:41.418Z,59.59
2022-07-26T03:19:08.731Z,59.54
2022-07-26T03:21:36.292Z,59.51
2022-07-26T03:24:03.723Z,59.73
2022-07-26T03:26:31.063Z,59.59
2022-07-26T03:28:58.456Z,60.66
2022-07-26T03:31:25.882Z,61.36
2022-07-26T03:33:53.280Z,61.09
2022-07-26T03:36:20.562Z,60.72
2022-07-26T03:38:47.872Z,58.44
2022-07-26T03:41:15.210Z,57.72
2022-07-26T03:43:44.274Z,57.84
2022-07-26T03:46:11.766Z,59.06
2022-07-26T03:48:39.246Z,59.75
2022-07-26T03:51:06.850Z,60.61
2022-07-26T03:53:34.607Z,61.39
2022-07-26T03:56:21.209Z,61.09
2022-07-26T03:58:48.528Z,60.54
2022-07-26T04:01:15.965Z,60.49
2022-07-26T04:03:47.402Z,61.10
2022-07-26T04:06:15.227Z,61.41
2022-07-26T04:08:43.141Z,61.19
2022-07-26T04:11:10.565Z,61.44
2022-07-26T04:13:37.928Z,60.86
2022-07-26T04:16:06.341Z,60.67
2022-07-26T04:18:33.845Z,61.08
2022-07-26T04:21:01.187Z,61.12
2022-07-26T04:23:28.500Z,62.05
2022-07-26T04:25:55.970Z,61.06
2022-07-26T04:28:24.419Z,60.66
2022-07-26T04:30:51.836Z,60.52
2022-07-26T04:33:19.179Z,60.24
2022-07-26T04:35:46.579Z,60.13
2022-07-26T04:38:13.923Z,60.41
2022-07-26T04:40:41.273Z,60.11
2022-07-26T04:43:10.036Z,60.36
2022-07-26T04:45:44.685Z,60.12
2022-07-26T04:48:15.510Z,58.83
2022-07-26T04:50:43.438Z,58.93
2022-07-26T04:53:13.554Z,59.96
2022-07-26T04:55:41.726Z,60.25
2022-07-26T04:58:09.915Z,60.12
2022-07-26T05:00:56.797Z,60.42
2022-07-26T05:03:25.438Z,59.50
2022-07-26T05:05:53.002Z,60.23
2022-07-26T05:08:20.425Z,60.11
2022-07-26T05:10:55.600Z,59.86
2022-07-26T05:13:30.109Z,59.95
2022-07-26T05:15:59.607Z,58.87
2022-07-26T05:18:29.436Z,58.88
2022-07-26T05:20:59.119Z,58.68
2022-07-26T05:23:26.423Z,59.34
2022-07-26T05:25:53.956Z,59.94
2022-07-26T05:28:21.319Z,60.17
2022-07-26T05:30:48.655Z,59.75
2022-07-26T05:33:16.682Z,58.17
2022-07-26T05:35:44.233Z,57.71
2022-07-26T05:38:11.592Z,57.65
2022-07-26T05:40:38.914Z,57.36
2022-07-26T05:43:06.379Z,57.43
2022-07-26T05:45:33.758Z,57.21
2022-07-26T05:48:01.164Z,57.34
2022-07-26T05:50:28.748Z,57.63
2022-07-26T05:52:56.110Z,56.48
2022-07-26T05:55:23.474Z,54.85
2022-07-26T05:57:50.815Z,56.61
2022-07-26T06:00:19.204Z,53.74
2022-07-26T06:02:46.577Z,53.68
2022-07-26T06:05:15.786Z,55.34
2022-07-26T06:07:43.194Z,54.37
2022-07-26T06:10:10.531Z,53.54
2022-07-26T06:12:39.809Z,53.74
2022-07-26T06:15:15.452Z,52.94
2022-07-26T06:17:43.428Z,50.60
2022-07-26T06:20:11.226Z,49.69
2022-07-26T06:22:38.637Z,51.50
2022-07-26T06:25:06.784Z,50.16
2022-07-26T06:27:34.242Z,50.71
2022-07-26T06:30:01.763Z,51.62
2022-07-26T06:32:29.052Z,51.19
2022-07-26T06:34:56.545Z,50.90
2022-07-26T06:37:23.854Z,51.47
2022-07-26T06:39:51.140Z,51.08
2022-07-26T06:42:18.478Z,50.44
2022-07-26T06:44:46.470Z,48.44
2022-07-26T06:47:13.810Z,49.22
2022-07-26T06:49:41.346Z,49.98
2022-07-26T06:52:08.693Z,50.81
2022-07-26T06:54:36.659Z,50.88
2022-07-26T06:57:04.059Z,50.35
2022-07-26T06:59:31.693Z,50.32
2022-07-26T07:02:00.641Z,49.91
2022-07-26T07:04:33.076Z,50.25
2022-07-26T07:07:06.092Z,50.46
2022-07-26T07:09:34.141Z,50.02
2022-07-26T07:12:08.450Z,49.06
2022-07-26T07:14:39.113Z,49.30
2022-07-26T07:17:12.857Z,47.44
2022-07-26T07:19:41.667Z,47.09
2022-07-26T07:22:11.876Z,45.53
2022-07-26T07:24:40.219Z,45.38
2022-07-26T07:27:08.142Z,44.87
2022-07-26T07:29:41.422Z,44.79
2022-07-26T07:32:15.951Z,44.92
2022-07-26T07:34:49.986Z,43.54
2022-07-26T07:37:20.012Z,42.28
2022-07-26T07:39:49.945Z,41.06
2022-07-26T07:42:19.450Z,40.39
2022-07-26T07:44:47.079Z,40.31
2022-07-26T07:47:14.727Z,39.68
2022-07-26T07:49:42.108Z,39.29
2022-07-26T07:52:09.529Z,39.26
2022-07-26T07:54:36.886Z,39.55
2022-07-26T07:57:05.879Z,40.46
2022-07-26T07:59:33.214Z,41.15
2022-07-26T08:02:06.763Z,40.39
2022-07-26T08:04:34.193Z,40.72
2022-07-26T08:07:01.580Z,39.28
2022-07-26T08:09:29.036Z,39.29
2022-07-26T08:11:56.403Z,39.41
2022-07-26T08:14:24.267Z,39.29
2022-07-26T08:16:52.464Z,39.61
2022-07-26T08:19:20.179Z,39.63
2022-07-26T08:21:49.998Z,38.60
2022-07-26T08:24:17.711Z,37.96
2022-07-26T08:26:45.153Z,37.59
2022-07-26T08:29:13.028Z,38.31
2022-07-26T08:31:40.689Z,37.63
2022-07-26T08:34:08.056Z,37.31
2022-07-26T08:36:35.410Z,37.62
2022-07-26T08:39:03.842Z,36.78
2022-07-26T08:41:31.749Z,36.02
2022-07-26T08:44:10.050Z,36.12
2022-07-26T08:46:39.546Z,35.79
2022-07-26T08:49:08.470Z,36.00
2022-07-26T08:51:40.881Z,36.25
2022-07-26T08:54:08.265Z,37.44
2022-07-26T08:56:37.606Z,36.68
2022-07-26T08:59:20.636Z,36.99
2022-07-26T09:01:58.652Z,35.56
2022-07-26T09:04:32.362Z,34.70
2022-07-26T09:07:05.053Z,34.08
2022-07-26T09:09:34.653Z,34.02
2022-07-26T09:12:17.317Z,34.01
2022-07-26T09:14:49.350Z,33.83
2022-07-26T09:17:18.600Z,34.22
2022-07-26T09:19:46.739Z,32.00
2022-07-26T09:22:17.167Z,32.87
2022-07-26T09:24:46.731Z,32.89
2022-07-26T09:27:18.284Z,33.41
2022-07-26T09:29:49.182Z,33.09
2022-07-26T09:32:22.902Z,33.62
2022-07-26T09:34:59.097Z,31.88
2022-07-26T09:37:37.416Z,32.35
2022-07-26T09:40:13.685Z,31.51
2022-07-26T09:43:02.395Z,32.54
2022-07-26T09:45:31.951Z,31.96
2022-07-26T09:48:01.712Z,31.72
2022-07-26T09:50:32.233Z,32.68
2022-07-26T09:53:08.484Z,32.03
2022-07-26T09:55:45.221Z,31.30
2022-07-26T09:58:14.725Z,31.83
2022-07-26T10:00:43.632Z,32.50
2022-07-26T10:03:11.593Z,32.08
2022-07-26T10:05:39.181Z,32.25
2022-07-26T10:08:07.883Z,32.25
2022-07-26T10:10:58.590Z,31.38
2022-07-26T10:13:27.719Z,31.37
2022-07-26T10:15:56.720Z,31.09
2022-07-26T10:18:38.062Z,31.40
2022-07-26T10:21:25.886Z,31.58
2022-07-26T10:23:58.821Z,31.56
2022-07-26T10:26:31.947Z,30.97
2022-07-26T10:29:17.382Z,30.20
2022-07-26T10:31:54.429Z,30.60
2022-07-26T10:34:48.311Z,30.86
2022-07-26T10:37:27.583Z,30.61
2022-07-26T10:40:22.529Z,31.25
2022-07-26T10:42:49.922Z,31.46
2022-07-26T10:45:20.843Z,31.27
2022-07-26T10:48:09.575Z,30.54
2022-07-26T10:50:41.265Z,30.13
2022-07-26T10:53:17.827Z,30.25
2022-07-26T10:55:56.343Z,30.71
2022-07-26T10:58:26.211Z,30.64
2022-07-26T11:01:01.363Z,29.91
2022-07-26T11:03:39.625Z,31.47
2022-07-26T11:06:15.287Z,31.04
2022-07-26T11:08:48.194Z,30.96
2022-07-26T11:11:31.454Z,30.66
2022-07-26T11:14:10.889Z,30.04
2022-07-26T11:16:44.875Z,30.95
2022-07-26T11:19:17.878Z,30.48
2022-07-26T11:21:46.687Z,31.01
2022-07-26T11:24:14.642Z,29.89
2022-07-26T11:26:44.587Z,30.91
2022-07-26T11:29:16.922Z,29.71
2022-07-26T11:31:51.933Z,30.66
2022-07-26T11:34:33.113Z,31.00
2022-07-26T11:37:03.197Z,31.54
2022-07-26T11:39:33.181Z,31.30
2022-07-26T11:42:04.978Z,31.49
2022-07-26T11:44:33.116Z,31.40
2022-07-26T11:47:10.138Z,31.44
2022-07-26T11:50:11.687Z,30.41
2022-07-26T11:52:30.193Z,31.42
2022-07-26T11:54:57.597Z,31.52
2022-07-26T11:57:29.941Z,32.01
2022-07-26T11:59:58.843Z,31.62
2022-07-26T12:02:27.970Z,31.84
2022-07-26T12:05:27.789Z,32.21
2022-07-26T12:08:02.782Z,31.60
2022-07-26T12:10:30.400Z,32.06
2022-07-26T12:13:14.133Z,30.86
2022-07-26T12:15:52.691Z,30.68
2022-07-26T12:18:31.260Z,31.11
2022-07-26T12:21:08.853Z,30.63
2022-07-26T12:23:54.704Z,30.50
2022-07-26T12:26:24.768Z,30.70
2022-07-26T12:28:54.466Z,29.94
2022-07-26T12:31:31.650Z,30.30
2022-07-26T12:34:22.200Z,29.27
2022-07-26T12:36:49.775Z,29.05
2022-07-26T12:39:23.188Z,29.63
2022-07-26T12:41:50.815Z,29.05
2022-07-26T12:44:18.203Z,30.16
2022-07-26T12:46:45.700Z,30.58
2022-07-26T12:49:13.346Z,30.70
2022-07-26T12:51:41.367Z,29.32
2022-07-26T12:54:09.146Z,29.60
2022-07-26T12:56:36.712Z,30.51
2022-07-26T12:59:04.099Z,28.82
2022-07-26T13:01:32.138Z,28.39
2022-07-26T13:04:00.069Z,29.95
2022-07-26T13:06:27.457Z,30.47
2022-07-26T13:08:56.407Z,31.04
2022-07-26T13:11:23.920Z,30.92
2022-07-26T13:13:51.340Z,30.23
2022-07-26T13:16:18.759Z,30.75
2022-07-26T13:18:46.690Z,30.70
2022-07-26T13:21:14.352Z,30.71
2022-07-26T13:23:41.693Z,31.35
2022-07-26T13:26:09.207Z,31.40
2022-07-26T13:28:37.744Z,31.33
2022-07-26T13:31:05.496Z,31.33
2022-07-26T13:33:33.277Z,30.26
2022-07-26T13:36:00.664Z,29.96
2022-07-26T13:38:28.912Z,30.78
2022-07-26T13:40:58.371Z,30.89
2022-07-26T13:43:26.056Z,31.10
2022-07-26T13:45:53.429Z,30.73
2022-07-26T13:48:20.918Z,31.30
2022-07-26T13:50:48.917Z,31.56
2022-07-26T13:53:16.418Z,31.79
2022-07-26T13:55:43.832Z,31.51
2022-07-26T13:58:11.588Z,31.22
2022-07-26T14:00:40.484Z,31.74
2022-07-26T14:03:08.239Z,32.63
2022-07-26T14:05:35.734Z,32.52
2022-07-26T14:08:03.334Z,32.12
2022-07-26T14:10:30.789Z,32.01
2022-07-26T14:12:58.918Z,31.97
2022-07-26T14:15:27.220Z,31.58
2022-07-26T14:17:54.744Z,32.24
2022-07-26T14:20:22.676Z,32.47
2022-07-26T14:22:56.432Z,31.75
2022-07-26T14:25:25.995Z,31.71
2022-07-26T14:27:54.941Z,32.65
2022-07-26T14:30:22.687Z,32.00
2022-07-26T14:32:50.267Z,32.19
2022-07-26T14:35:17.722Z,32.27
2022-07-26T14:37:46.016Z,32.29
2022-07-26T14:40:17.960Z,31.79
2022-07-26T14:42:46.257Z,32.31
2022-07-26T14:45:14.428Z,32.50
2022-07-26T14:47:42.525Z,32.79
2022-07-26T14:50:11.770Z,33.22
2022-07-26T14:52:41.237Z,33.55
2022-07-26T14:55:09.771Z,33.95
2022-07-26T14:57:39.881Z,34.33
2022-07-26T15:00:10.269Z,34.62
2022-07-26T15:02:42.461Z,35.76
2022-07-26T15:05:11.528Z,35.03
2022-07-26T15:07:41.015Z,35.50
2022-07-26T15:10:10.527Z,36.16
2022-07-26T15:12:38.915Z,36.87
2022-07-26T15:15:07.739Z,36.43
2022-07-26T15:17:35.850Z,36.39
2022-07-26T15:20:05.228Z,36.93
2022-07-26T15:22:32.715Z,36.65
2022-07-26T15:25:00.301Z,37.21
2022-07-26T15:27:27.850Z,37.60
2022-07-26T15:30:03.420Z,36.67
2022-07-26T15:32:33.853Z,36.78
2022-07-26T15:35:01.331Z,37.12
2022-07-26T15:37:28.926Z,36.30
2022-07-26T15:39:56.253Z,36.22
2022-07-26T15:42:23.571Z,36.02
2022-07-26T15:44:52.212Z,36.60
2022-07-26T15:47:52.504Z,36.24
2022-07-26T15:50:12.723Z,35.55
2022-07-26T15:52:44.648Z,35.83
2022-07-26T15:55:14.346Z,35.30
2022-07-26T15:57:41.712Z,35.00
2022-07-26T16:00:10.949Z,35.05
2022-07-26T16:02:40.515Z,34.32
2022-07-26T16:05:09.442Z,34.60
2022-07-26T16:07:37.488Z,34.15
2022-07-26T16:10:05.411Z,33.43
2022-07-26T16:12:33.150Z,33.61
2022-07-26T16:15:00.813Z,33.75
2022-07-26T16:17:28.273Z,34.13
2022-07-26T16:19:55.592Z,33.62
2022-07-26T16:22:23.155Z,34.10
2022-07-26T16:24:50.814Z,33.76
2022-07-26T16:27:18.186Z,33.63
2022-07-26T16:29:50.263Z,33.97
2022-07-26T16:32:21.092Z,34.29
2022-07-26T16:34:48.803Z,33.85
2022-07-26T16:37:16.278Z,33.62
2022-07-26T16:39:43.692Z,33.78
2022-07-26T16:42:11.030Z,33.95
2022-07-26T16:44:38.746Z,34.72
2022-07-26T16:47:06.265Z,34.93
2022-07-26T16:49:36.644Z,34.74
2022-07-26T16:52:04.815Z,34.28
2022-07-26T16:54:36.448Z,34.51
2022-07-26T16:57:06.676Z,33.94
2022-07-26T16:59:34.378Z,34.46
2022-07-26T17:02:02.816Z,34.20
2022-07-26T17:04:30.589Z,34.60
2022-07-26T17:07:23.423Z,34.79
2022-07-26T17:09:45.358Z,34.87
2022-07-26T17:12:12.671Z,34.17
2022-07-26T17:14:40.120Z,34.31
2022-07-26T17:17:07.471Z,34.01
2022-07-26T17:19:34.889Z,34.45
2022-07-26T17:22:02.237Z,34.17
2022-07-26T17:24:29.705Z,34.34
2022-07-26T17:26:57.336Z,33.91
2022-07-26T17:29:24.713Z,33.89
2022-07-26T17:31:52.851Z,33.15
2022-07-26T17:34:20.349Z,32.16
2022-07-26T17:36:47.719Z,32.16
2022-07-26T17:39:17.088Z,32.25
2022-07-26T17:41:49.044Z,32.76
2022-07-26T17:44:16.671Z,33.15
2022-07-26T17:46:44.169Z,33.46
2022-07-26T17:49:13.083Z,33.47
2022-07-26T17:51:41.651Z,33.63
2022-07-26T17:54:09.358Z,33.91
2022-07-26T17:56:36.691Z,34.16
2022-07-26T17:59:04.096Z,33.78
2022-07-26T18:01:31.516Z,33.90
2022-07-26T18:04:01.458Z,33.87
2022-07-26T18:06:28.905Z,34.47
2022-07-26T18:08:56.506Z,34.36
2022-07-26T18:11:23.818Z,34.79
2022-07-26T18:13:51.134Z,34.53
2022-07-26T18:16:18.794Z,34.63
2022-07-26T18:18:46.170Z,35.04
2022-07-26T18:21:15.065Z,34.76
2022-07-26T18:24:00.381Z,34.82
2022-07-26T18:26:29.736Z,34.88
2022-07-26T18:28:57.131Z,34.91
2022-07-26T18:31:24.966Z,35.26
2022-07-26T18:33:52.335Z,35.45
2022-07-26T18:36:19.648Z,35.70
2022-07-26T18:38:46.995Z,36.28
2022-07-26T18:41:14.459Z,36.43
2022-07-26T18:43:43.468Z,36.81
2022-07-26T18:46:10.873Z,36.94
2022-07-26T18:48:41.665Z,37.28
2022-07-26T18:51:12.056Z,37.06
2022-07-26T18:53:39.698Z,37.28
2022-07-26T18:56:08.915Z,37.64
2022-07-26T18:58:37.406Z,37.72
2022-07-26T19:01:09.505Z,37.88
2022-07-26T19:03:37.067Z,37.97
2022-07-26T19:06:05.245Z,38.13
2022-07-26T19:08:32.580Z,38.43
2022-07-26T19:10:59.911Z,38.62
2022-07-26T19:13:27.270Z,38.80
2022-07-26T19:15:54.676Z,38.94
2022-07-26T19:18:22.117Z,38.99
2022-07-26T19:20:49.523Z,39.17
2022-07-26T19:23:19.537Z,39.85
2022-07-26T19:25:47.255Z,39.72
2022-07-26T19:28:15.088Z,40.05
2022-07-26T19:30:43.110Z,40.32
2022-07-26T19:33:10.497Z,40.04
2022-07-26T19:35:37.819Z,39.95
2022-07-26T19:38:05.333Z,40.02
2022-07-26T19:40:32.640Z,40.34
2022-07-26T19:43:00.002Z,40.60
2022-07-26T19:45:29.620Z,40.57
2022-07-26T19:47:56.979Z,40.41
2022-07-26T19:50:24.363Z,40.63
2022-07-26T19:52:51.670Z,40.80
2022-07-26T19:55:19.206Z,40.27
2022-07-26T19:57:46.550Z,40.59
2022-07-26T20:00:14.676Z,40.25
2022-07-26T20:02:42.101Z,40.84
2022-07-26T20:05:10.823Z,40.67
2022-07-26T20:07:38.867Z,40.50
2022-07-26T20:10:07.227Z,40.04
2022-07-26T20:12:35.487Z,39.96
2022-07-26T20:15:02.931Z,40.36
2022-07-26T20:17:35.387Z,40.07
2022-07-26T20:20:05.760Z,39.64
2022-07-26T20:22:33.314Z,39.88
2022-07-26T20:25:00.737Z,39.79
2022-07-26T20:27:28.896Z,39.67
2022-07-26T20:30:00.760Z,39.90
2022-07-26T20:32:28.558Z,39.58
2022-07-26T20:34:55.899Z,39.70
2022-07-26T20:37:23.279Z,40.22
2022-07-26T20:39:51.394Z,40.47
2022-07-26T20:42:21.656Z,40.54
2022-07-26T20:44:49.440Z,40.58
2022-07-26T20:47:16.760Z,40.63
2022-07-26T20:49:44.766Z,40.87
2022-07-26T20:52:12.065Z,40.89
2022-07-26T20:54:39.368Z,40.80
2022-07-26T20:57:06.759Z,40.64
2022-07-26T20:59:35.059Z,40.91
2022-07-26T21:02:02.499Z,41.06
2022-07-26T21:04:30.639Z,41.40
2022-07-26T21:06:58.967Z,41.47
2022-07-26T21:09:27.377Z,40.93
2022-07-26T21:11:54.752Z,41.41
2022-07-26T21:14:22.240Z,41.01
2022-07-26T21:16:49.670Z,41.56
2022-07-26T21:19:17.112Z,41.90
2022-07-26T21:21:46.792Z,42.07
2022-07-26T21:24:14.258Z,42.69
2022-07-26T21:26:41.606Z,42.64
2022-07-26T21:29:09.193Z,42.56
2022-07-26T21:31:36.969Z,42.30
2022-07-26T21:34:04.855Z,42.52
2022-07-26T21:36:32.998Z,42.32
2022-07-26T21:39:00.282Z,42.16
2022-07-26T21:41:27.661Z,41.96
2022-07-26T21:43:55.006Z,42.27
2022-07-26T21:46:23.048Z,43.46
2022-07-26T21:48:50.937Z,43.51
2022-07-26T21:51:19.048Z,43.40
2022-07-26T21:53:47.148Z,43.83
2022-07-26T21:56:14.775Z,43.95
2022-07-26T21:58:42.317Z,43.66
2022-07-26T22:01:12.512Z,44.00
2022-07-26T22:03:41.847Z,44.24
2022-07-26T22:06:09.975Z,43.99
2022-07-26T22:08:37.499Z,44.05
2022-07-26T22:11:05.484Z,44.03
2022-07-26T22:13:32.866Z,43.44
2022-07-26T22:16:00.337Z,43.66
2022-07-26T22:18:27.986Z,43.42
2022-07-26T22:20:55.931Z,42.96
2022-07-26T22:23:29.805Z,42.61
2022-07-26T22:26:02.137Z,41.85
2022-07-26T22:28:31.116Z,41.75
2022-07-26T22:30:59.663Z,41.45
2022-07-26T22:33:28.906Z,41.48
2022-07-26T22:35:56.693Z,41.10
2022-07-26T22:38:24.557Z,41.08
2022-07-26T22:40:52.471Z,41.03
2022-07-26T22:43:20.515Z,41.06
2022-07-26T22:45:49.115Z,41.03
2022-07-26T22:48:16.709Z,40.74
2022-07-26T22:50:44.301Z,40.95
2022-07-26T22:53:11.684Z,40.37
2022-07-26T22:55:39.188Z,40.22
2022-07-26T22:58:06.500Z,40.74
2022-07-26T23:00:33.982Z,40.84
2022-07-26T23:03:01.498Z,40.45
2022-07-26T23:05:36.052Z,40.52
2022-07-26T23:08:43.799Z,40.07
2022-07-26T23:11:00.583Z,40.27
2022-07-26T23:13:27.881Z,39.99
2022-07-26T23:16:00.540Z,39.91
2022-07-26T23:18:29.506Z,40.03
2022-07-26T23:20:57.925Z,40.36
2022-07-26T23:23:29.863Z,40.48
2022-07-26T23:26:00.500Z,40.30
2022-07-26T23:28:37.187Z,39.98
2022-07-26T23:31:11.144Z,40.03
2022-07-26T23:33:52.292Z,39.61
2022-07-26T23:36:25.893Z,39.63
2022-07-26T23:38:54.867Z,39.91
2022-07-26T23:41:22.775Z,39.26
2022-07-26T23:43:50.415Z,39.20
2022-07-26T23:46:18.214Z,39.61
2022-07-26T23:48:46.016Z,40.41
2022-07-26T23:51:13.474Z,40.84
2022-07-26T23:53:41.298Z,40.65
2022-07-26T23:56:08.797Z,41.11
2022-07-26T23:58:36.852Z,40.94
